Terminal Aerodrome Forecast
Issued by NWS Twin Cities, MN

Home | Current Version | Previous Version | Text Only | Print | Product List | Glossary Off
Versions: 1 2 3 4 5 6 7 8 9 10 11 12 13 14 15 16

000
FTUS43 KMPX 252300
TAFSTC
TAF
KSTC 252338Z 2600/2624 27010KT P6SM SCT040 BKN120
     FM260200 29006KT P6SM SCT120
     FM261400 33007KT P6SM SCT035 SCT250=

USA.gov is the U.S. government's official web portal to all federal, state and local government web resources and services.